Terminal Aerodrome Forecast
Issued by NWS

Current Version | Previous Version | Graphics & Text | Print | Product List | Glossary On
Versions: 1 2 3 4 5 6 7 8 9 10 11 12 13
000
FTUS41 KILN 250540
TAFLCK
TAF
KLCK 250540Z 2506/2606 00000KT P6SM SCT250
     FM251300 18005KT P6SM SCT060
     FM251700 20011KT P6SM VCSH BKN050
     FM260000 17004KT P6SM SCT050=

USA.gov is the U.S. government's official web portal to all federal, state and local government web resources and services.